sensor_id;sensor_type;location;lat;lon;timestamp;P1;durP1;ratioP1;P2;durP2;ratioP2
71973;SDS011;59840;52.122;5.404;2023-01-09T00:00:18;0.87;;;0.20;;
71973;SDS011;59840;52.122;5.404;2023-01-09T00:02:46;1.23;;;0.20;;
71973;SDS011;59840;52.122;5.404;2023-01-09T00:05:13;3.58;;;0.20;;
71973;SDS011;59840;52.122;5.404;2023-01-09T00:07:41;0.40;;;0.10;;
71973;SDS011;59840;52.122;5.404;2023-01-09T00:10:07;1.15;;;0.20;;
71973;SDS011;59840;52.122;5.404;2023-01-09T00:12:35;1.30;;;0.30;;
71973;SDS011;59840;52.122;5.404;2023-01-09T00:15:02;0.82;;;0.45;;
71973;SDS011;59840;52.122;5.404;2023-01-09T00:17:29;2.03;;;0.20;;
71973;SDS011;59840;52.122;5.404;2023-01-09T00:19:56;0.88;;;0.20;;
71973;SDS011;59840;52.122;5.404;2023-01-09T00:22:23;0.40;;;0.20;;
71973;SDS011;59840;52.122;5.404;2023-01-09T00:24:50;2.30;;;0.40;;
71973;SDS011;59840;52.122;5.404;2023-01-09T00:27:16;1.80;;;0.20;;
71973;SDS011;59840;52.122;5.404;2023-01-09T00:29:43;2.28;;;0.30;;
71973;SDS011;59840;52.122;5.404;2023-01-09T00:32:11;0.88;;;0.20;;
71973;SDS011;59840;52.122;5.404;2023-01-09T00:34:37;0.38;;;0.20;;
71973;SDS011;59840;52.122;5.404;2023-01-09T00:37:04;0.90;;;0.20;;
71973;SDS011;59840;52.122;5.404;2023-01-09T00:39:37;0.43;;;0.20;;
71973;SDS011;59840;52.122;5.404;2023-01-09T00:42:05;1.13;;;0.30;;
71973;SDS011;59840;52.122;5.404;2023-01-09T00:44:39;0.82;;;0.13;;
71973;SDS011;59840;52.122;5.404;2023-01-09T00:47:25;3.83;;;0.30;;
71973;SDS011;59840;52.122;5.404;2023-01-09T00:49:59;1.00;;;0.10;;
71973;SDS011;59840;52.122;5.404;2023-01-09T00:52:31;2.10;;;0.30;;
71973;SDS011;59840;52.122;5.404;2023-01-09T00:55:01;1.25;;;0.40;;
71973;SDS011;59840;52.122;5.404;2023-01-09T00:57:28;2.28;;;0.45;;
71973;SDS011;59840;52.122;5.404;2023-01-09T00:59:56;3.25;;;0.65;;
71973;SDS011;59840;52.122;5.404;2023-01-09T01:02:23;1.27;;;0.20;;
71973;SDS011;59840;52.122;5.404;2023-01-09T01:04:50;1.55;;;0.30;;
71973;SDS011;59840;52.122;5.404;2023-01-09T01:07:36;0.73;;;0.20;;
71973;SDS011;59840;52.122;5.404;2023-01-09T01:10:17;2.05;;;0.30;;
71973;SDS011;59840;52.122;5.404;2023-01-09T01:12:46;1.17;;;0.25;;
71973;SDS011;59840;52.122;5.404;2023-01-09T01:15:14;0.53;;;0.20;;
71973;SDS011;59840;52.122;5.404;2023-01-09T01:17:41;1.85;;;0.50;;
71973;SDS011;59840;52.122;5.404;2023-01-09T01:20:09;2.20;;;0.40;;
71973;SDS011;59840;52.122;5.404;2023-01-09T01:22:38;2.15;;;0.57;;
71973;SDS011;59840;52.122;5.404;2023-01-09T01:25:07;3.22;;;0.65;;
71973;SDS011;59840;52.122;5.404;2023-01-09T01:27:34;1.20;;;0.20;;
71973;SDS011;59840;52.122;5.404;2023-01-09T01:30:01;1.40;;;0.40;;
71973;SDS011;59840;52.122;5.404;2023-01-09T01:32:27;0.90;;;0.30;;
71973;SDS011;59840;52.122;5.404;2023-01-09T01:34:54;1.30;;;0.30;;
71973;SDS011;59840;52.122;5.404;2023-01-09T01:37:20;2.58;;;0.30;;
71973;SDS011;59840;52.122;5.404;2023-01-09T01:39:47;0.70;;;0.30;;
71973;SDS011;59840;52.122;5.404;2023-01-09T01:42:14;1.63;;;0.50;;
71973;SDS011;59840;52.122;5.404;2023-01-09T01:44:55;1.17;;;0.50;;
71973;SDS011;59840;52.122;5.404;2023-01-09T01:47:22;2.20;;;0.50;;
71973;SDS011;59840;52.122;5.404;2023-01-09T01:49:53;1.60;;;0.32;;
71973;SDS011;59840;52.122;5.404;2023-01-09T01:52:21;1.97;;;0.37;;
71973;SDS011;59840;52.122;5.404;2023-01-09T01:54:50;2.25;;;0.45;;
71973;SDS011;59840;52.122;5.404;2023-01-09T01:57:17;3.17;;;0.50;;
71973;SDS011;59840;52.122;5.404;2023-01-09T01:59:45;2.60;;;0.40;;
71973;SDS011;59840;52.122;5.404;2023-01-09T02:02:19;1.08;;;0.55;;
71973;SDS011;59840;52.122;5.404;2023-01-09T02:04:49;2.73;;;0.77;;
71973;SDS011;59840;52.122;5.404;2023-01-09T02:07:18;1.83;;;0.75;;
71973;SDS011;59840;52.122;5.404;2023-01-09T02:09:45;3.63;;;0.90;;
71973;SDS011;59840;52.122;5.404;2023-01-09T02:12:19;1.50;;;0.75;;
71973;SDS011;59840;52.122;5.404;2023-01-09T02:15:00;2.40;;;1.10;;
71973;SDS011;59840;52.122;5.404;2023-01-09T02:31:20;2.30;;;1.33;;
71973;SDS011;59840;52.122;5.404;2023-01-09T02:34:13;2.42;;;1.67;;
71973;SDS011;59840;52.122;5.404;2023-01-09T02:39:42;2.03;;;1.42;;
71973;SDS011;59840;52.122;5.404;2023-01-09T02:42:21;2.45;;;1.40;;
71973;SDS011;59840;52.122;5.404;2023-01-09T02:44:48;2.73;;;1.37;;
71973;SDS011;59840;52.122;5.404;2023-01-09T02:49:45;3.00;;;1.40;;
71973;SDS011;59840;52.122;5.404;2023-01-09T02:57:35;1.70;;;1.37;;
71973;SDS011;59840;52.122;5.404;2023-01-09T03:00:08;2.53;;;1.08;;
71973;SDS011;59840;52.122;5.404;2023-01-09T03:02:52;1.50;;;1.10;;
71973;SDS011;59840;52.122;5.404;2023-01-09T03:08:21;3.42;;;1.63;;
71973;SDS011;59840;52.122;5.404;2023-01-09T03:10:59;3.73;;;1.10;;
71973;SDS011;59840;52.122;5.404;2023-01-09T03:13:31;2.05;;;0.95;;
71973;SDS011;59840;52.122;5.404;2023-01-09T03:16:04;1.70;;;0.90;;
71973;SDS011;59840;52.122;5.404;2023-01-09T03:18:33;2.75;;;1.15;;
71973;SDS011;59840;52.122;5.404;2023-01-09T03:21:02;1.77;;;1.02;;
71973;SDS011;59840;52.122;5.404;2023-01-09T03:23:48;2.50;;;0.97;;
71973;SDS011;59840;52.122;5.404;2023-01-09T03:26:15;1.70;;;0.98;;
71973;SDS011;59840;52.122;5.404;2023-01-09T03:28:42;2.65;;;1.13;;
71973;SDS011;59840;52.122;5.404;2023-01-09T03:31:09;4.72;;;1.30;;
71973;SDS011;59840;52.122;5.404;2023-01-09T03:33:35;2.13;;;1.00;;
71973;SDS011;59840;52.122;5.404;2023-01-09T03:36:02;3.87;;;1.17;;
71973;SDS011;59840;52.122;5.404;2023-01-09T03:38:29;1.35;;;0.80;;
71973;SDS011;59840;52.122;5.404;2023-01-09T03:40:55;5.53;;;1.25;;
71973;SDS011;59840;52.122;5.404;2023-01-09T03:43:22;2.63;;;0.80;;
71973;SDS011;59840;52.122;5.404;2023-01-09T03:45:49;4.00;;;0.90;;
71973;SDS011;59840;52.122;5.404;2023-01-09T03:48:16;2.23;;;0.93;;
71973;SDS011;59840;52.122;5.404;2023-01-09T03:50:42;5.43;;;1.15;;
71973;SDS011;59840;52.122;5.404;2023-01-09T03:53:11;3.85;;;0.80;;
71973;SDS011;59840;52.122;5.404;2023-01-09T03:55:39;2.22;;;1.02;;
71973;SDS011;59840;52.122;5.404;2023-01-09T03:58:08;2.15;;;0.93;;
71973;SDS011;59840;52.122;5.404;2023-01-09T04:00:34;3.70;;;0.70;;
71973;SDS011;59840;52.122;5.404;2023-01-09T04:03:01;2.05;;;0.80;;
71973;SDS011;59840;52.122;5.404;2023-01-09T04:05:27;2.45;;;0.82;;
71973;SDS011;59840;52.122;5.404;2023-01-09T04:07:54;2.55;;;0.73;;
71973;SDS011;59840;52.122;5.404;2023-01-09T04:10:20;1.75;;;0.80;;
71973;SDS011;59840;52.122;5.404;2023-01-09T04:12:47;4.33;;;0.60;;
71973;SDS011;59840;52.122;5.404;2023-01-09T04:15:13;1.98;;;0.68;;
71973;SDS011;59840;52.122;5.404;2023-01-09T04:17:40;3.08;;;0.82;;
71973;SDS011;59840;52.122;5.404;2023-01-09T04:20:07;3.08;;;0.75;;
71973;SDS011;59840;52.122;5.404;2023-01-09T04:22:34;3.05;;;0.70;;
71973;SDS011;59840;52.122;5.404;2023-01-09T04:25:01;2.33;;;0.60;;
71973;SDS011;59840;52.122;5.404;2023-01-09T04:27:27;1.83;;;0.50;;
71973;SDS011;59840;52.122;5.404;2023-01-09T04:29:55;1.50;;;0.55;;
71973;SDS011;59840;52.122;5.404;2023-01-09T04:32:21;3.20;;;0.63;;
71973;SDS011;59840;52.122;5.404;2023-01-09T04:34:48;2.70;;;0.65;;
71973;SDS011;59840;52.122;5.404;2023-01-09T04:37:14;1.50;;;0.53;;
71973;SDS011;59840;52.122;5.404;2023-01-09T04:39:41;2.92;;;0.55;;
71973;SDS011;59840;52.122;5.404;2023-01-09T04:42:11;1.88;;;0.52;;
71973;SDS011;59840;52.122;5.404;2023-01-09T04:44:38;2.35;;;0.70;;
71973;SDS011;59840;52.122;5.404;2023-01-09T04:47:04;2.55;;;0.50;;
71973;SDS011;59840;52.122;5.404;2023-01-09T04:49:31;1.23;;;0.43;;
71973;SDS011;59840;52.122;5.404;2023-01-09T04:51:57;2.40;;;0.55;;
71973;SDS011;59840;52.122;5.404;2023-01-09T04:54:24;1.83;;;0.60;;
71973;SDS011;59840;52.122;5.404;2023-01-09T04:56:50;1.50;;;0.40;;
71973;SDS011;59840;52.122;5.404;2023-01-09T04:59:17;3.30;;;0.52;;
71973;SDS011;59840;52.122;5.404;2023-01-09T05:01:43;1.40;;;0.50;;
71973;SDS011;59840;52.122;5.404;2023-01-09T05:04:10;1.60;;;0.50;;
71973;SDS011;59840;52.122;5.404;2023-01-09T05:06:38;3.03;;;0.55;;
71973;SDS011;59840;52.122;5.404;2023-01-09T05:09:04;2.42;;;0.30;;
71973;SDS011;59840;52.122;5.404;2023-01-09T05:11:31;2.75;;;0.45;;
71973;SDS011;59840;52.122;5.404;2023-01-09T05:13:57;2.23;;;0.40;;
71973;SDS011;59840;52.122;5.404;2023-01-09T05:16:24;1.20;;;0.20;;
71973;SDS011;59840;52.122;5.404;2023-01-09T05:18:51;1.70;;;0.50;;
71973;SDS011;59840;52.122;5.404;2023-01-09T05:21:22;0.80;;;0.30;;
71973;SDS011;59840;52.122;5.404;2023-01-09T05:23:49;2.60;;;0.40;;
71973;SDS011;59840;52.122;5.404;2023-01-09T05:26:16;4.00;;;0.60;;
71973;SDS011;59840;52.122;5.404;2023-01-09T05:28:43;6.38;;;0.40;;
71973;SDS011;59840;52.122;5.404;2023-01-09T05:31:09;1.52;;;0.50;;
71973;SDS011;59840;52.122;5.404;2023-01-09T05:33:36;2.63;;;0.50;;
71973;SDS011;59840;52.122;5.404;2023-01-09T05:36:02;0.70;;;0.20;;
71973;SDS011;59840;52.122;5.404;2023-01-09T05:38:29;2.80;;;0.30;;
71973;SDS011;59840;52.122;5.404;2023-01-09T05:40:55;2.22;;;0.30;;
71973;SDS011;59840;52.122;5.404;2023-01-09T05:43:22;4.63;;;0.40;;
71973;SDS011;59840;52.122;5.404;2023-01-09T05:45:48;1.25;;;0.38;;
71973;SDS011;59840;52.122;5.404;2023-01-09T05:48:15;2.70;;;0.50;;
71973;SDS011;59840;52.122;5.404;2023-01-09T05:50:41;1.87;;;0.30;;
71973;SDS011;59840;52.122;5.404;2023-01-09T05:53:08;1.95;;;0.30;;
71973;SDS011;59840;52.122;5.404;2023-01-09T05:55:35;2.53;;;0.30;;
71973;SDS011;59840;52.122;5.404;2023-01-09T05:58:01;4.95;;;0.40;;
71973;SDS011;59840;52.122;5.404;2023-01-09T06:00:28;1.35;;;0.30;;
71973;SDS011;59840;52.122;5.404;2023-01-09T06:02:55;2.07;;;0.47;;
71973;SDS011;59840;52.122;5.404;2023-01-09T06:05:22;4.03;;;0.30;;
71973;SDS011;59840;52.122;5.404;2023-01-09T06:07:48;4.18;;;0.68;;
71973;SDS011;59840;52.122;5.404;2023-01-09T06:10:15;1.20;;;0.30;;
71973;SDS011;59840;52.122;5.404;2023-01-09T06:12:45;1.98;;;0.30;;
71973;SDS011;59840;52.122;5.404;2023-01-09T06:15:13;4.30;;;0.60;;
71973;SDS011;59840;52.122;5.404;2023-01-09T06:17:41;4.10;;;0.50;;
71973;SDS011;59840;52.122;5.404;2023-01-09T06:20:08;2.63;;;0.47;;
71973;SDS011;59840;52.122;5.404;2023-01-09T06:22:35;5.60;;;0.60;;
71973;SDS011;59840;52.122;5.404;2023-01-09T06:25:02;1.98;;;0.40;;
71973;SDS011;59840;52.122;5.404;2023-01-09T06:27:29;2.73;;;0.50;;
71973;SDS011;59840;52.122;5.404;2023-01-09T06:29:55;3.90;;;0.50;;
71973;SDS011;59840;52.122;5.404;2023-01-09T06:32:22;2.97;;;0.43;;
71973;SDS011;59840;52.122;5.404;2023-01-09T06:34:48;3.28;;;0.63;;
71973;SDS011;59840;52.122;5.404;2023-01-09T06:37:15;5.13;;;0.45;;
71973;SDS011;59840;52.122;5.404;2023-01-09T06:39:41;1.73;;;0.77;;
71973;SDS011;59840;52.122;5.404;2023-01-09T06:42:08;2.72;;;0.60;;
71973;SDS011;59840;52.122;5.404;2023-01-09T06:44:34;2.70;;;0.40;;
71973;SDS011;59840;52.122;5.404;2023-01-09T06:47:02;3.22;;;0.50;;
71973;SDS011;59840;52.122;5.404;2023-01-09T06:49:29;2.85;;;0.60;;
71973;SDS011;59840;52.122;5.404;2023-01-09T06:51:55;1.67;;;0.40;;
71973;SDS011;59840;52.122;5.404;2023-01-09T06:54:22;3.83;;;0.57;;
71973;SDS011;59840;52.122;5.404;2023-01-09T06:56:48;3.33;;;0.60;;
71973;SDS011;59840;52.122;5.404;2023-01-09T06:59:18;5.07;;;0.40;;
71973;SDS011;59840;52.122;5.404;2023-01-09T07:01:44;2.50;;;0.50;;
71973;SDS011;59840;52.122;5.404;2023-01-09T07:04:11;1.43;;;0.30;;
71973;SDS011;59840;52.122;5.404;2023-01-09T07:06:38;2.38;;;0.32;;
71973;SDS011;59840;52.122;5.404;2023-01-09T07:09:04;5.03;;;0.70;;
71973;SDS011;59840;52.122;5.404;2023-01-09T07:11:31;2.60;;;0.60;;
71973;SDS011;59840;52.122;5.404;2023-01-09T07:13:58;5.20;;;0.75;;
71973;SDS011;59840;52.122;5.404;2023-01-09T07:16:24;3.60;;;0.53;;
71973;SDS011;59840;52.122;5.404;2023-01-09T07:18:51;2.58;;;0.30;;
71973;SDS011;59840;52.122;5.404;2023-01-09T07:21:17;1.60;;;0.40;;
71973;SDS011;59840;52.122;5.404;2023-01-09T07:23:44;1.67;;;0.65;;
71973;SDS011;59840;52.122;5.404;2023-01-09T07:26:10;1.77;;;0.65;;
71973;SDS011;59840;52.122;5.404;2023-01-09T07:28:37;4.13;;;0.53;;
71973;SDS011;59840;52.122;5.404;2023-01-09T07:31:03;2.83;;;0.77;;
71973;SDS011;59840;52.122;5.404;2023-01-09T07:33:33;5.03;;;0.57;;
71973;SDS011;59840;52.122;5.404;2023-01-09T07:36:00;2.58;;;0.40;;
71973;SDS011;59840;52.122;5.404;2023-01-09T07:38:26;2.60;;;0.50;;
71973;SDS011;59840;52.122;5.404;2023-01-09T07:40:53;5.70;;;0.70;;
71973;SDS011;59840;52.122;5.404;2023-01-09T07:43:19;1.40;;;0.57;;
71973;SDS011;59840;52.122;5.404;2023-01-09T07:45:46;2.35;;;0.50;;
71973;SDS011;59840;52.122;5.404;2023-01-09T07:48:13;4.80;;;0.70;;
71973;SDS011;59840;52.122;5.404;2023-01-09T07:50:39;3.95;;;1.10;;
71973;SDS011;59840;52.122;5.404;2023-01-09T07:53:06;3.27;;;1.10;;
71973;SDS011;59840;52.122;5.404;2023-01-09T07:55:32;3.72;;;1.20;;
71973;SDS011;59840;52.122;5.404;2023-01-09T07:57:58;2.38;;;0.98;;
71973;SDS011;59840;52.122;5.404;2023-01-09T08:00:25;2.83;;;1.00;;
71973;SDS011;59840;52.122;5.404;2023-01-09T08:02:52;2.35;;;0.90;;
71973;SDS011;59840;52.122;5.404;2023-01-09T08:05:19;3.67;;;1.03;;
71973;SDS011;59840;52.122;5.404;2023-01-09T08:07:46;1.33;;;0.80;;
71973;SDS011;59840;52.122;5.404;2023-01-09T08:10:15;2.75;;;0.98;;
71973;SDS011;59840;52.122;5.404;2023-01-09T08:12:45;2.13;;;0.75;;
71973;SDS011;59840;52.122;5.404;2023-01-09T08:15:12;2.25;;;0.70;;
71973;SDS011;59840;52.122;5.404;2023-01-09T08:17:40;1.77;;;0.70;;
71973;SDS011;59840;52.122;5.404;2023-01-09T08:20:12;1.23;;;0.63;;
71973;SDS011;59840;52.122;5.404;2023-01-09T08:22:40;0.95;;;0.30;;
71973;SDS011;59840;52.122;5.404;2023-01-09T08:25:08;2.17;;;0.22;;
71973;SDS011;59840;52.122;5.404;2023-01-09T08:27:38;1.25;;;0.60;;
71973;SDS011;59840;52.122;5.404;2023-01-09T08:30:04;1.17;;;0.23;;
71973;SDS011;59840;52.122;5.404;2023-01-09T08:32:31;1.63;;;0.20;;
71973;SDS011;59840;52.122;5.404;2023-01-09T08:34:58;1.40;;;0.20;;
71973;SDS011;59840;52.122;5.404;2023-01-09T08:37:25;0.55;;;0.20;;
71973;SDS011;59840;52.122;5.404;2023-01-09T08:39:51;1.27;;;0.20;;
71973;SDS011;59840;52.122;5.404;2023-01-09T08:42:19;0.97;;;0.20;;
71973;SDS011;59840;52.122;5.404;2023-01-09T08:45:05;4.25;;;0.20;;
71973;SDS011;59840;52.122;5.404;2023-01-09T08:47:51;1.70;;;0.25;;
71973;SDS011;59840;52.122;5.404;2023-01-09T08:50:17;1.90;;;0.40;;
71973;SDS011;59840;52.122;5.404;2023-01-09T08:52:44;1.67;;;0.20;;
71973;SDS011;59840;52.122;5.404;2023-01-09T08:55:11;1.53;;;0.30;;
71973;SDS011;59840;52.122;5.404;2023-01-09T08:57:39;3.67;;;0.20;;
71973;SDS011;59840;52.122;5.404;2023-01-09T09:00:13;0.52;;;0.20;;
71973;SDS011;59840;52.122;5.404;2023-01-09T09:02:40;3.80;;;0.30;;
71973;SDS011;59840;52.122;5.404;2023-01-09T09:05:07;2.13;;;0.47;;
71973;SDS011;59840;52.122;5.404;2023-01-09T09:07:33;2.57;;;0.30;;
71973;SDS011;59840;52.122;5.404;2023-01-09T09:10:00;3.15;;;0.35;;
71973;SDS011;59840;52.122;5.404;2023-01-09T09:12:27;1.17;;;0.38;;
71973;SDS011;59840;52.122;5.404;2023-01-09T09:14:54;1.73;;;0.60;;
71973;SDS011;59840;52.122;5.404;2023-01-09T09:17:39;1.40;;;0.30;;
71973;SDS011;59840;52.122;5.404;2023-01-09T09:20:06;3.33;;;0.50;;
71973;SDS011;59840;52.122;5.404;2023-01-09T09:22:34;1.60;;;0.20;;
71973;SDS011;59840;52.122;5.404;2023-01-09T09:25:00;2.28;;;0.30;;
71973;SDS011;59840;52.122;5.404;2023-01-09T09:27:30;1.85;;;0.30;;
71973;SDS011;59840;52.122;5.404;2023-01-09T09:29:57;2.28;;;0.40;;
71973;SDS011;59840;52.122;5.404;2023-01-09T09:32:24;2.17;;;0.30;;
71973;SDS011;59840;52.122;5.404;2023-01-09T09:34:50;2.25;;;0.40;;
71973;SDS011;59840;52.122;5.404;2023-01-09T09:37:17;1.83;;;0.32;;
71973;SDS011;59840;52.122;5.404;2023-01-09T09:39:43;1.67;;;0.20;;
71973;SDS011;59840;52.122;5.404;2023-01-09T09:42:15;2.00;;;0.30;;
71973;SDS011;59840;52.122;5.404;2023-01-09T09:54:04;0.93;;;0.10;;
71973;SDS011;59840;52.122;5.404;2023-01-09T09:56:57;1.88;;;0.20;;
71973;SDS011;59840;52.122;5.404;2023-01-09T09:59:27;1.73;;;0.40;;
71973;SDS011;59840;52.122;5.404;2023-01-09T10:01:59;2.97;;;0.15;;
71973;SDS011;59840;52.122;5.404;2023-01-09T10:04:37;2.83;;;0.20;;
71973;SDS011;59840;52.122;5.404;2023-01-09T10:07:16;2.28;;;0.20;;
71973;SDS011;59840;52.122;5.404;2023-01-09T10:12:36;4.33;;;0.40;;
71973;SDS011;59840;52.122;5.404;2023-01-09T10:15:14;3.42;;;0.40;;
71973;SDS011;59840;52.122;5.404;2023-01-09T10:26:36;4.17;;;0.60;;
71973;SDS011;59840;52.122;5.404;2023-01-09T10:38:07;0.70;;;0.20;;
71973;SDS011;59840;52.122;5.404;2023-01-09T10:40:45;2.60;;;0.30;;
71973;SDS011;59840;52.122;5.404;2023-01-09T10:46:52;3.50;;;0.20;;
71973;SDS011;59840;52.122;5.404;2023-01-09T10:49:21;3.00;;;0.20;;
71973;SDS011;59840;52.122;5.404;2023-01-09T10:51:49;4.45;;;0.30;;
71973;SDS011;59840;52.122;5.404;2023-01-09T10:54:19;1.20;;;0.17;;
71973;SDS011;59840;52.122;5.404;2023-01-09T10:56:55;0.82;;;0.10;;
71973;SDS011;59840;52.122;5.404;2023-01-09T10:59:25;2.92;;;0.30;;
71973;SDS011;59840;52.122;5.404;2023-01-09T11:01:52;1.52;;;0.20;;
71973;SDS011;59840;52.122;5.404;2023-01-09T11:04:22;1.20;;;0.20;;
71973;SDS011;59840;52.122;5.404;2023-01-09T11:06:59;1.80;;;0.10;;
71973;SDS011;59840;52.122;5.404;2023-01-09T11:12:31;2.50;;;0.20;;
71973;SDS011;59840;52.122;5.404;2023-01-09T11:17:45;2.67;;;0.20;;
71973;SDS011;59840;52.122;5.404;2023-01-09T11:22:55;4.18;;;0.43;;
71973;SDS011;59840;52.122;5.404;2023-01-09T11:25:27;2.20;;;0.40;;
71973;SDS011;59840;52.122;5.404;2023-01-09T11:28:02;1.10;;;0.28;;
71973;SDS011;59840;52.122;5.404;2023-01-09T11:30:32;3.25;;;0.20;;
71973;SDS011;59840;52.122;5.404;2023-01-09T11:33:11;5.70;;;0.47;;
71973;SDS011;59840;52.122;5.404;2023-01-09T11:36:26;4.78;;;0.32;;
71973;SDS011;59840;52.122;5.404;2023-01-09T11:38:31;3.97;;;0.38;;
71973;SDS011;59840;52.122;5.404;2023-01-09T11:41:12;4.75;;;0.57;;
71973;SDS011;59840;52.122;5.404;2023-01-09T11:43:44;2.67;;;0.50;;
71973;SDS011;59840;52.122;5.404;2023-01-09T11:46:28;2.37;;;0.33;;
71973;SDS011;59840;52.122;5.404;2023-01-09T11:48:56;3.28;;;0.50;;
71973;SDS011;59840;52.122;5.404;2023-01-09T11:51:25;4.13;;;0.50;;
71973;SDS011;59840;52.122;5.404;2023-01-09T11:54:03;4.13;;;0.40;;
71973;SDS011;59840;52.122;5.404;2023-01-09T11:56:37;2.90;;;0.30;;
71973;SDS011;59840;52.122;5.404;2023-01-09T11:59:12;4.13;;;0.50;;
71973;SDS011;59840;52.122;5.404;2023-01-09T12:04:55;5.32;;;0.55;;
71973;SDS011;59840;52.122;5.404;2023-01-09T12:10:25;3.95;;;0.50;;
71973;SDS011;59840;52.122;5.404;2023-01-09T12:18:14;4.72;;;0.63;;
71973;SDS011;59840;52.122;5.404;2023-01-09T12:23:34;5.15;;;0.52;;
71973;SDS011;59840;52.122;5.404;2023-01-09T12:28:57;3.88;;;0.30;;
71973;SDS011;59840;52.122;5.404;2023-01-09T12:34:07;2.20;;;0.40;;
71973;SDS011;59840;52.122;5.404;2023-01-09T12:36:49;6.35;;;0.75;;
71973;SDS011;59840;52.122;5.404;2023-01-09T12:47:37;3.63;;;0.28;;
71973;SDS011;59840;52.122;5.404;2023-01-09T12:53:29;4.43;;;0.50;;
71973;SDS011;59840;52.122;5.404;2023-01-09T13:01:12;3.47;;;0.65;;
71973;SDS011;59840;52.122;5.404;2023-01-09T13:06:28;3.40;;;0.47;;
71973;SDS011;59840;52.122;5.404;2023-01-09T13:09:04;4.53;;;0.38;;
71973;SDS011;59840;52.122;5.404;2023-01-09T13:11:39;3.83;;;0.60;;
71973;SDS011;59840;52.122;5.404;2023-01-09T13:17:22;6.40;;;0.68;;
71973;SDS011;59840;52.122;5.404;2023-01-09T13:19:52;5.23;;;0.60;;
71973;SDS011;59840;52.122;5.404;2023-01-09T13:22:19;4.85;;;0.63;;
71973;SDS011;59840;52.122;5.404;2023-01-09T13:27:50;9.25;;;0.80;;
71973;SDS011;59840;52.122;5.404;2023-01-09T13:33:14;2.80;;;0.30;;
71973;SDS011;59840;52.122;5.404;2023-01-09T13:35:46;1.77;;;0.30;;
71973;SDS011;59840;52.122;5.404;2023-01-09T13:38:22;9.57;;;1.23;;
71973;SDS011;59840;52.122;5.404;2023-01-09T13:41:00;4.05;;;0.70;;
71973;SDS011;59840;52.122;5.404;2023-01-09T13:46:47;6.10;;;0.60;;
71973;SDS011;59840;52.122;5.404;2023-01-09T13:52:01;5.90;;;0.40;;
71973;SDS011;59840;52.122;5.404;2023-01-09T13:57:28;4.28;;;0.30;;
71973;SDS011;59840;52.122;5.404;2023-01-09T13:59:58;6.27;;;0.30;;
71973;SDS011;59840;52.122;5.404;2023-01-09T14:05:15;5.20;;;0.80;;
71973;SDS011;59840;52.122;5.404;2023-01-09T14:10:45;9.77;;;1.30;;
71973;SDS011;59840;52.122;5.404;2023-01-09T14:13:17;3.23;;;0.43;;
71973;SDS011;59840;52.122;5.404;2023-01-09T14:15:50;5.18;;;0.98;;
71973;SDS011;59840;52.122;5.404;2023-01-09T14:18:28;5.63;;;0.57;;
71973;SDS011;59840;52.122;5.404;2023-01-09T14:20:58;6.00;;;0.55;;
71973;SDS011;59840;52.122;5.404;2023-01-09T14:26:19;6.67;;;0.43;;
71973;SDS011;59840;52.122;5.404;2023-01-09T14:28:48;3.08;;;0.50;;
71973;SDS011;59840;52.122;5.404;2023-01-09T14:31:28;3.92;;;0.45;;
71973;SDS011;59840;52.122;5.404;2023-01-09T14:34:29;7.53;;;0.43;;
71973;SDS011;59840;52.122;5.404;2023-01-09T14:36:58;4.40;;;0.65;;
71973;SDS011;59840;52.122;5.404;2023-01-09T14:39:29;3.43;;;0.30;;
71973;SDS011;59840;52.122;5.404;2023-01-09T14:41:58;3.53;;;0.63;;
71973;SDS011;59840;52.122;5.404;2023-01-09T14:49:57;8.85;;;0.43;;
71973;SDS011;59840;52.122;5.404;2023-01-09T14:52:36;6.67;;;0.63;;
71973;SDS011;59840;52.122;5.404;2023-01-09T14:55:12;5.03;;;0.85;;
71973;SDS011;59840;52.122;5.404;2023-01-09T14:57:45;6.32;;;0.70;;
71973;SDS011;59840;52.122;5.404;2023-01-09T15:00:17;8.48;;;0.40;;
71973;SDS011;59840;52.122;5.404;2023-01-09T15:02:44;5.03;;;0.60;;
71973;SDS011;59840;52.122;5.404;2023-01-09T15:05:13;3.13;;;0.40;;
71973;SDS011;59840;52.122;5.404;2023-01-09T15:07:51;5.85;;;0.60;;
71973;SDS011;59840;52.122;5.404;2023-01-09T15:10:19;1.90;;;0.57;;
71973;SDS011;59840;52.122;5.404;2023-01-09T15:12:48;7.72;;;0.70;;
71973;SDS011;59840;52.122;5.404;2023-01-09T15:15:18;3.33;;;0.82;;
71973;SDS011;59840;52.122;5.404;2023-01-09T15:18:00;3.53;;;0.60;;
71973;SDS011;59840;52.122;5.404;2023-01-09T15:20:29;6.82;;;0.55;;
71973;SDS011;59840;52.122;5.404;2023-01-09T15:22:58;8.07;;;0.47;;
71973;SDS011;59840;52.122;5.404;2023-01-09T15:25:32;6.50;;;0.60;;
71973;SDS011;59840;52.122;5.404;2023-01-09T15:28:39;2.85;;;0.25;;
71973;SDS011;59840;52.122;5.404;2023-01-09T15:33:27;6.65;;;0.60;;
71973;SDS011;59840;52.122;5.404;2023-01-09T15:35:54;5.05;;;0.35;;
71973;SDS011;59840;52.122;5.404;2023-01-09T15:38:27;3.35;;;0.52;;
71973;SDS011;59840;52.122;5.404;2023-01-09T15:40:59;8.38;;;0.68;;
71973;SDS011;59840;52.122;5.404;2023-01-09T15:43:29;4.47;;;0.60;;
71973;SDS011;59840;52.122;5.404;2023-01-09T15:45:57;5.05;;;0.40;;
71973;SDS011;59840;52.122;5.404;2023-01-09T15:53:31;8.88;;;0.77;;
71973;SDS011;59840;52.122;5.404;2023-01-09T15:56:03;3.03;;;0.27;;
71973;SDS011;59840;52.122;5.404;2023-01-09T15:58:46;3.78;;;0.30;;
71973;SDS011;59840;52.122;5.404;2023-01-09T16:03:56;5.32;;;0.50;;
71973;SDS011;59840;52.122;5.404;2023-01-09T16:06:31;5.10;;;0.73;;
71973;SDS011;59840;52.122;5.404;2023-01-09T16:08:59;7.53;;;0.40;;
71973;SDS011;59840;52.122;5.404;2023-01-09T16:11:30;4.90;;;0.43;;
71973;SDS011;59840;52.122;5.404;2023-01-09T16:16:50;5.07;;;0.82;;
71973;SDS011;59840;52.122;5.404;2023-01-09T16:19:27;5.82;;;1.42;;
71973;SDS011;59840;52.122;5.404;2023-01-09T16:22:18;8.47;;;1.50;;
71973;SDS011;59840;52.122;5.404;2023-01-09T16:24:47;8.95;;;1.75;;
71973;SDS011;59840;52.122;5.404;2023-01-09T16:27:27;11.40;;;1.35;;
71973;SDS011;59840;52.122;5.404;2023-01-09T16:30:01;10.88;;;1.88;;
71973;SDS011;59840;52.122;5.404;2023-01-09T16:32:30;9.65;;;2.50;;
71973;SDS011;59840;52.122;5.404;2023-01-09T16:34:59;8.83;;;2.57;;
71973;SDS011;59840;52.122;5.404;2023-01-09T16:37:31;8.75;;;1.92;;
71973;SDS011;59840;52.122;5.404;2023-01-09T16:42:33;11.75;;;3.88;;
71973;SDS011;59840;52.122;5.404;2023-01-09T16:45:19;13.52;;;5.10;;
71973;SDS011;59840;52.122;5.404;2023-01-09T16:47:46;9.43;;;4.00;;
71973;SDS011;59840;52.122;5.404;2023-01-09T16:50:12;7.55;;;3.50;;
71973;SDS011;59840;52.122;5.404;2023-01-09T16:52:39;6.78;;;1.75;;
71973;SDS011;59840;52.122;5.404;2023-01-09T16:55:05;3.50;;;1.55;;
71973;SDS011;59840;52.122;5.404;2023-01-09T16:57:32;7.82;;;1.73;;
71973;SDS011;59840;52.122;5.404;2023-01-09T17:00:00;12.53;;;1.93;;
71973;SDS011;59840;52.122;5.404;2023-01-09T17:02:27;6.72;;;2.10;;
71973;SDS011;59840;52.122;5.404;2023-01-09T17:04:53;9.23;;;2.30;;
71973;SDS011;59840;52.122;5.404;2023-01-09T17:07:24;10.05;;;2.20;;
71973;SDS011;59840;52.122;5.404;2023-01-09T17:09:51;9.73;;;3.35;;
71973;SDS011;59840;52.122;5.404;2023-01-09T17:12:19;9.43;;;2.73;;
71973;SDS011;59840;52.122;5.404;2023-01-09T17:14:47;6.45;;;1.88;;
71973;SDS011;59840;52.122;5.404;2023-01-09T17:17:14;6.00;;;1.40;;
71973;SDS011;59840;52.122;5.404;2023-01-09T17:19:42;3.03;;;0.68;;
71973;SDS011;59840;52.122;5.404;2023-01-09T17:22:11;5.05;;;0.40;;
71973;SDS011;59840;52.122;5.404;2023-01-09T17:24:37;5.07;;;0.90;;
71973;SDS011;59840;52.122;5.404;2023-01-09T17:27:25;3.92;;;0.60;;
71973;SDS011;59840;52.122;5.404;2023-01-09T17:30:14;2.25;;;0.50;;
71973;SDS011;59840;52.122;5.404;2023-01-09T17:32:45;3.30;;;0.55;;
71973;SDS011;59840;52.122;5.404;2023-01-09T17:35:13;3.60;;;0.65;;
71973;SDS011;59840;52.122;5.404;2023-01-09T17:37:41;3.83;;;0.47;;
71973;SDS011;59840;52.122;5.404;2023-01-09T17:40:18;3.20;;;0.50;;